sensor_id;sensor_type;location;lat;lon;timestamp;temperature;humidity
42037;DHT22;30340;52.004;5.908;2022-07-23T00:02:06;18.10;70.40
42037;DHT22;30340;52.004;5.908;2022-07-23T00:04:33;18.10;70.50
42037;DHT22;30340;52.004;5.908;2022-07-23T00:06:58;18.00;70.50
42037;DHT22;30340;52.004;5.908;2022-07-23T00:09:24;18.00;70.70
42037;DHT22;30340;52.004;5.908;2022-07-23T00:11:50;17.90;70.70
42037;DHT22;30340;52.004;5.908;2022-07-23T00:14:15;17.80;70.80
42037;DHT22;30340;52.004;5.908;2022-07-23T00:16:41;17.80;71.60
42037;DHT22;30340;52.004;5.908;2022-07-23T00:19:06;17.70;71.10
42037;DHT22;30340;52.004;5.908;2022-07-23T00:21:32;17.60;71.30
42037;DHT22;30340;52.004;5.908;2022-07-23T00:23:57;17.60;71.50
42037;DHT22;30340;52.004;5.908;2022-07-23T00:26:23;17.60;71.70
42037;DHT22;30340;52.004;5.908;2022-07-23T00:28:49;17.50;71.60
42037;DHT22;30340;52.004;5.908;2022-07-23T00:31:14;17.50;71.70
42037;DHT22;30340;52.004;5.908;2022-07-23T00:33:40;17.50;71.80
42037;DHT22;30340;52.004;5.908;2022-07-23T00:36:06;17.50;71.90
42037;DHT22;30340;52.004;5.908;2022-07-23T00:38:32;17.40;71.90
42037;DHT22;30340;52.004;5.908;2022-07-23T00:40:57;17.40;72.00
42037;DHT22;30340;52.004;5.908;2022-07-23T00:43:23;17.40;72.20
42037;DHT22;30340;52.004;5.908;2022-07-23T00:45:49;17.30;72.20
42037;DHT22;30340;52.004;5.908;2022-07-23T00:48:14;17.30;72.40
42037;DHT22;30340;52.004;5.908;2022-07-23T00:50:40;17.20;72.40
42037;DHT22;30340;52.004;5.908;2022-07-23T00:53:06;17.20;72.60
42037;DHT22;30340;52.004;5.908;2022-07-23T00:55:31;17.20;72.70
42037;DHT22;30340;52.004;5.908;2022-07-23T00:57:58;17.20;72.70
42037;DHT22;30340;52.004;5.908;2022-07-23T01:00:24;17.20;72.90
42037;DHT22;30340;52.004;5.908;2022-07-23T01:02:50;17.10;73.00
42037;DHT22;30340;52.004;5.908;2022-07-23T01:05:16;17.10;73.10
42037;DHT22;30340;52.004;5.908;2022-07-23T01:07:43;17.10;73.90
42037;DHT22;30340;52.004;5.908;2022-07-23T01:10:09;17.00;73.30
42037;DHT22;30340;52.004;5.908;2022-07-23T01:12:53;17.00;73.40
42037;DHT22;30340;52.004;5.908;2022-07-23T01:15:19;16.90;73.60
42037;DHT22;30340;52.004;5.908;2022-07-23T01:17:44;16.80;73.70
42037;DHT22;30340;52.004;5.908;2022-07-23T01:20:10;16.80;73.90
42037;DHT22;30340;52.004;5.908;2022-07-23T01:22:35;16.80;74.10
42037;DHT22;30340;52.004;5.908;2022-07-23T01:25:01;16.80;74.10
42037;DHT22;30340;52.004;5.908;2022-07-23T01:27:26;16.70;74.30
42037;DHT22;30340;52.004;5.908;2022-07-23T01:29:54;16.70;74.40
42037;DHT22;30340;52.004;5.908;2022-07-23T01:32:19;16.60;74.40
42037;DHT22;30340;52.004;5.908;2022-07-23T01:34:45;16.60;74.40
42037;DHT22;30340;52.004;5.908;2022-07-23T01:37:10;16.60;74.50
42037;DHT22;30340;52.004;5.908;2022-07-23T01:39:36;16.60;74.70
42037;DHT22;30340;52.004;5.908;2022-07-23T01:42:01;16.60;74.70
42037;DHT22;30340;52.004;5.908;2022-07-23T01:44:27;16.60;74.80
42037;DHT22;30340;52.004;5.908;2022-07-23T01:46:52;16.60;74.70
42037;DHT22;30340;52.004;5.908;2022-07-23T01:49:18;16.60;74.80
42037;DHT22;30340;52.004;5.908;2022-07-23T01:51:44;16.50;74.80
42037;DHT22;30340;52.004;5.908;2022-07-23T01:54:29;16.50;74.70
42037;DHT22;30340;52.004;5.908;2022-07-23T01:56:55;16.50;74.80
42037;DHT22;30340;52.004;5.908;2022-07-23T01:59:21;16.50;74.70
42037;DHT22;30340;52.004;5.908;2022-07-23T02:01:47;16.50;74.70
42037;DHT22;30340;52.004;5.908;2022-07-23T02:04:13;16.50;74.70
42037;DHT22;30340;52.004;5.908;2022-07-23T02:06:39;16.40;74.70
42037;DHT22;30340;52.004;5.908;2022-07-23T02:09:04;16.50;74.80
42037;DHT22;30340;52.004;5.908;2022-07-23T02:11:30;16.40;74.80
42037;DHT22;30340;52.004;5.908;2022-07-23T02:13:55;16.40;74.80
42037;DHT22;30340;52.004;5.908;2022-07-23T02:16:21;16.40;74.80
42037;DHT22;30340;52.004;5.908;2022-07-23T02:18:46;16.40;74.80
42037;DHT22;30340;52.004;5.908;2022-07-23T02:21:12;16.50;74.80
42037;DHT22;30340;52.004;5.908;2022-07-23T02:23:38;16.40;74.80
42037;DHT22;30340;52.004;5.908;2022-07-23T02:26:03;16.40;74.80
42037;DHT22;30340;52.004;5.908;2022-07-23T02:28:29;16.40;74.80
42037;DHT22;30340;52.004;5.908;2022-07-23T02:30:55;16.40;74.80
42037;DHT22;30340;52.004;5.908;2022-07-23T02:33:20;16.40;74.80
42037;DHT22;30340;52.004;5.908;2022-07-23T02:35:46;16.50;74.70
42037;DHT22;30340;52.004;5.908;2022-07-23T02:38:11;16.50;74.60
42037;DHT22;30340;52.004;5.908;2022-07-23T02:40:37;16.50;74.60
42037;DHT22;30340;52.004;5.908;2022-07-23T02:43:02;16.50;74.60
42037;DHT22;30340;52.004;5.908;2022-07-23T02:45:28;16.40;74.50
42037;DHT22;30340;52.004;5.908;2022-07-23T02:47:53;16.50;74.50
42037;DHT22;30340;52.004;5.908;2022-07-23T02:50:19;16.40;74.80
42037;DHT22;30340;52.004;5.908;2022-07-23T02:52:44;16.30;74.90
42037;DHT22;30340;52.004;5.908;2022-07-23T02:55:10;16.40;74.90
42037;DHT22;30340;52.004;5.908;2022-07-23T02:57:36;16.40;74.90
42037;DHT22;30340;52.004;5.908;2022-07-23T03:00:03;16.40;74.90
42037;DHT22;30340;52.004;5.908;2022-07-23T03:02:29;16.40;74.80
42037;DHT22;30340;52.004;5.908;2022-07-23T03:04:55;16.40;74.70
42037;DHT22;30340;52.004;5.908;2022-07-23T03:07:21;16.40;74.70
42037;DHT22;30340;52.004;5.908;2022-07-23T03:09:46;16.40;74.70
42037;DHT22;30340;52.004;5.908;2022-07-23T03:12:12;16.40;74.60
42037;DHT22;30340;52.004;5.908;2022-07-23T03:14:37;16.40;74.50
42037;DHT22;30340;52.004;5.908;2022-07-23T03:17:03;16.40;74.40
42037;DHT22;30340;52.004;5.908;2022-07-23T03:19:28;16.40;74.30
42037;DHT22;30340;52.004;5.908;2022-07-23T03:21:54;16.40;74.30
42037;DHT22;30340;52.004;5.908;2022-07-23T03:24:20;16.40;74.30
42037;DHT22;30340;52.004;5.908;2022-07-23T03:26:45;16.40;74.20
42037;DHT22;30340;52.004;5.908;2022-07-23T03:29:11;16.40;74.10
42037;DHT22;30340;52.004;5.908;2022-07-23T03:31:37;16.40;74.20
42037;DHT22;30340;52.004;5.908;2022-07-23T03:34:02;16.40;74.20
42037;DHT22;30340;52.004;5.908;2022-07-23T03:36:28;16.40;74.10
42037;DHT22;30340;52.004;5.908;2022-07-23T03:38:53;16.40;74.20
42037;DHT22;30340;52.004;5.908;2022-07-23T03:41:20;16.40;74.30
42037;DHT22;30340;52.004;5.908;2022-07-23T03:43:46;16.40;74.40
42037;DHT22;30340;52.004;5.908;2022-07-23T03:46:12;16.30;74.40
42037;DHT22;30340;52.004;5.908;2022-07-23T03:48:37;16.40;74.40
42037;DHT22;30340;52.004;5.908;2022-07-23T03:51:03;16.40;74.40
42037;DHT22;30340;52.004;5.908;2022-07-23T03:53:29;16.30;74.30
42037;DHT22;30340;52.004;5.908;2022-07-23T03:55:55;16.40;74.40
42037;DHT22;30340;52.004;5.908;2022-07-23T03:58:20;16.30;74.40
42037;DHT22;30340;52.004;5.908;2022-07-23T04:00:46;16.30;74.40
42037;DHT22;30340;52.004;5.908;2022-07-23T04:03:12;16.30;74.40
42037;DHT22;30340;52.004;5.908;2022-07-23T04:05:37;16.30;74.50
42037;DHT22;30340;52.004;5.908;2022-07-23T04:08:03;16.30;74.40
42037;DHT22;30340;52.004;5.908;2022-07-23T04:10:29;16.30;74.40
42037;DHT22;30340;52.004;5.908;2022-07-23T04:12:54;16.30;74.40
42037;DHT22;30340;52.004;5.908;2022-07-23T04:15:20;16.30;74.40
42037;DHT22;30340;52.004;5.908;2022-07-23T04:17:45;16.30;74.40
42037;DHT22;30340;52.004;5.908;2022-07-23T04:20:12;16.30;74.30
42037;DHT22;30340;52.004;5.908;2022-07-23T04:22:38;16.30;74.30
42037;DHT22;30340;52.004;5.908;2022-07-23T04:25:04;16.40;74.30
42037;DHT22;30340;52.004;5.908;2022-07-23T04:27:29;16.30;74.20
42037;DHT22;30340;52.004;5.908;2022-07-23T04:29:55;16.40;74.20
42037;DHT22;30340;52.004;5.908;2022-07-23T04:32:21;16.30;74.10
42037;DHT22;30340;52.004;5.908;2022-07-23T04:34:46;16.30;74.10
42037;DHT22;30340;52.004;5.908;2022-07-23T04:37:12;16.30;74.20
42037;DHT22;30340;52.004;5.908;2022-07-23T04:39:37;16.40;74.20
42037;DHT22;30340;52.004;5.908;2022-07-23T04:42:03;16.40;74.20
42037;DHT22;30340;52.004;5.908;2022-07-23T04:44:28;16.40;74.10
42037;DHT22;30340;52.004;5.908;2022-07-23T04:46:54;16.40;74.10
42037;DHT22;30340;52.004;5.908;2022-07-23T04:49:20;16.40;74.10
42037;DHT22;30340;52.004;5.908;2022-07-23T04:51:46;16.40;74.10
42037;DHT22;30340;52.004;5.908;2022-07-23T04:54:12;16.50;74.10
42037;DHT22;30340;52.004;5.908;2022-07-23T04:56:38;16.50;74.10
42037;DHT22;30340;52.004;5.908;2022-07-23T04:59:03;16.50;74.70
42037;DHT22;30340;52.004;5.908;2022-07-23T05:01:29;16.60;74.10
42037;DHT22;30340;52.004;5.908;2022-07-23T05:03:54;16.60;74.00
42037;DHT22;30340;52.004;5.908;2022-07-23T05:06:20;16.60;74.10
42037;DHT22;30340;52.004;5.908;2022-07-23T05:08:45;16.60;74.10
42037;DHT22;30340;52.004;5.908;2022-07-23T05:11:11;16.70;74.10
42037;DHT22;30340;52.004;5.908;2022-07-23T05:13:36;17.00;74.10
42037;DHT22;30340;52.004;5.908;2022-07-23T05:16:02;17.80;72.70
42037;DHT22;30340;52.004;5.908;2022-07-23T05:18:28;18.60;70.50
42037;DHT22;30340;52.004;5.908;2022-07-23T05:20:53;19.50;68.50
42037;DHT22;30340;52.004;5.908;2022-07-23T05:23:19;20.30;66.20
42037;DHT22;30340;52.004;5.908;2022-07-23T05:25:44;20.90;64.20
42037;DHT22;30340;52.004;5.908;2022-07-23T05:28:10;21.50;62.50
42037;DHT22;30340;52.004;5.908;2022-07-23T05:30:35;22.10;61.00
42037;DHT22;30340;52.004;5.908;2022-07-23T05:33:01;22.60;59.70
42037;DHT22;30340;52.004;5.908;2022-07-23T05:35:27;23.10;58.70
42037;DHT22;30340;52.004;5.908;2022-07-23T05:37:52;23.40;57.60
42037;DHT22;30340;52.004;5.908;2022-07-23T05:40:18;23.90;56.80
42037;DHT22;30340;52.004;5.908;2022-07-23T05:42:43;24.30;55.90
42037;DHT22;30340;52.004;5.908;2022-07-23T05:45:09;24.60;55.00
42037;DHT22;30340;52.004;5.908;2022-07-23T05:47:48;24.90;54.10
42037;DHT22;30340;52.004;5.908;2022-07-23T05:50:15;25.10;53.30
42037;DHT22;30340;52.004;5.908;2022-07-23T05:52:41;25.20;53.00
42037;DHT22;30340;52.004;5.908;2022-07-23T05:55:07;25.40;52.60
42037;DHT22;30340;52.004;5.908;2022-07-23T05:57:33;25.60;52.20
42037;DHT22;30340;52.004;5.908;2022-07-23T05:59:59;25.80;51.70
42037;DHT22;30340;52.004;5.908;2022-07-23T06:02:24;26.10;51.20
42037;DHT22;30340;52.004;5.908;2022-07-23T06:04:50;26.20;50.60
42037;DHT22;30340;52.004;5.908;2022-07-23T06:07:16;26.30;50.10
42037;DHT22;30340;52.004;5.908;2022-07-23T06:09:41;26.50;49.80
42037;DHT22;30340;52.004;5.908;2022-07-23T06:12:07;26.50;49.40
42037;DHT22;30340;52.004;5.908;2022-07-23T06:14:33;26.40;49.40
42037;DHT22;30340;52.004;5.908;2022-07-23T06:16:58;26.50;49.20
42037;DHT22;30340;52.004;5.908;2022-07-23T06:19:24;26.50;49.20
42037;DHT22;30340;52.004;5.908;2022-07-23T06:21:50;26.40;49.00
42037;DHT22;30340;52.004;5.908;2022-07-23T06:24:16;26.60;49.00
42037;DHT22;30340;52.004;5.908;2022-07-23T06:26:41;26.70;48.70
42037;DHT22;30340;52.004;5.908;2022-07-23T06:29:07;26.70;48.50
42037;DHT22;30340;52.004;5.908;2022-07-23T06:31:32;26.70;48.40
42037;DHT22;30340;52.004;5.908;2022-07-23T06:33:58;26.70;48.50
42037;DHT22;30340;52.004;5.908;2022-07-23T06:36:24;26.80;48.70
42037;DHT22;30340;52.004;5.908;2022-07-23T06:38:53;26.50;49.10
42037;DHT22;30340;52.004;5.908;2022-07-23T06:41:18;26.00;49.80
42037;DHT22;30340;52.004;5.908;2022-07-23T06:43:44;25.50;50.80
42037;DHT22;30340;52.004;5.908;2022-07-23T06:46:09;24.90;51.80
42037;DHT22;30340;52.004;5.908;2022-07-23T06:48:35;24.50;52.90
42037;DHT22;30340;52.004;5.908;2022-07-23T06:51:01;24.10;53.60
42037;DHT22;30340;52.004;5.908;2022-07-23T06:53:27;23.80;54.20
42037;DHT22;30340;52.004;5.908;2022-07-23T06:55:53;23.60;54.50
42037;DHT22;30340;52.004;5.908;2022-07-23T06:58:19;23.50;54.80
42037;DHT22;30340;52.004;5.908;2022-07-23T07:00:45;23.40;54.90
42037;DHT22;30340;52.004;5.908;2022-07-23T07:03:11;23.40;54.90
42037;DHT22;30340;52.004;5.908;2022-07-23T07:05:36;23.30;55.20
42037;DHT22;30340;52.004;5.908;2022-07-23T07:08:02;23.20;55.30
42037;DHT22;30340;52.004;5.908;2022-07-23T07:10:28;23.20;55.50
42037;DHT22;30340;52.004;5.908;2022-07-23T07:12:53;23.10;55.60
42037;DHT22;30340;52.004;5.908;2022-07-23T07:15:19;23.00;55.70
42037;DHT22;30340;52.004;5.908;2022-07-23T07:17:44;23.00;56.00
42037;DHT22;30340;52.004;5.908;2022-07-23T07:20:10;23.00;55.80
42037;DHT22;30340;52.004;5.908;2022-07-23T07:22:36;22.90;55.60
42037;DHT22;30340;52.004;5.908;2022-07-23T07:25:02;23.00;55.80
42037;DHT22;30340;52.004;5.908;2022-07-23T07:27:28;23.00;55.60
42037;DHT22;30340;52.004;5.908;2022-07-23T07:29:53;23.10;55.20
42037;DHT22;30340;52.004;5.908;2022-07-23T07:32:19;23.10;55.10
42037;DHT22;30340;52.004;5.908;2022-07-23T07:34:44;23.10;54.80
42037;DHT22;30340;52.004;5.908;2022-07-23T07:37:10;23.00;54.90
42037;DHT22;30340;52.004;5.908;2022-07-23T07:39:35;23.00;54.80
42037;DHT22;30340;52.004;5.908;2022-07-23T07:42:01;22.90;55.00
42037;DHT22;30340;52.004;5.908;2022-07-23T07:44:26;22.90;55.30
42037;DHT22;30340;52.004;5.908;2022-07-23T07:46:52;22.90;55.10
42037;DHT22;30340;52.004;5.908;2022-07-23T07:49:18;23.00;55.10
42037;DHT22;30340;52.004;5.908;2022-07-23T07:51:45;23.00;54.70
42037;DHT22;30340;52.004;5.908;2022-07-23T07:54:11;23.20;54.50
42037;DHT22;30340;52.004;5.908;2022-07-23T07:56:36;23.30;54.20
42037;DHT22;30340;52.004;5.908;2022-07-23T07:59:02;23.20;54.00
42037;DHT22;30340;52.004;5.908;2022-07-23T08:01:27;23.10;54.00
42037;DHT22;30340;52.004;5.908;2022-07-23T08:03:53;23.10;54.10
42037;DHT22;30340;52.004;5.908;2022-07-23T08:06:19;23.20;54.00
42037;DHT22;30340;52.004;5.908;2022-07-23T08:08:44;23.30;54.00
42037;DHT22;30340;52.004;5.908;2022-07-23T08:11:10;23.40;54.10
42037;DHT22;30340;52.004;5.908;2022-07-23T08:13:36;23.50;53.90
42037;DHT22;30340;52.004;5.908;2022-07-23T08:16:01;23.70;53.70
42037;DHT22;30340;52.004;5.908;2022-07-23T08:18:27;23.70;53.50
42037;DHT22;30340;52.004;5.908;2022-07-23T08:20:53;23.70;53.10
42037;DHT22;30340;52.004;5.908;2022-07-23T08:23:19;23.80;53.00
42037;DHT22;30340;52.004;5.908;2022-07-23T08:25:46;23.90;52.90
42037;DHT22;30340;52.004;5.908;2022-07-23T08:28:13;24.00;52.50
42037;DHT22;30340;52.004;5.908;2022-07-23T08:30:41;24.00;52.50
42037;DHT22;30340;52.004;5.908;2022-07-23T08:33:14;24.10;52.70
42037;DHT22;30340;52.004;5.908;2022-07-23T08:35:47;24.20;52.60
42037;DHT22;30340;52.004;5.908;2022-07-23T08:38:16;24.10;51.80
42037;DHT22;30340;52.004;5.908;2022-07-23T08:40:44;24.00;51.80
42037;DHT22;30340;52.004;5.908;2022-07-23T08:43:13;24.00;52.10
42037;DHT22;30340;52.004;5.908;2022-07-23T08:45:43;24.00;51.70
42037;DHT22;30340;52.004;5.908;2022-07-23T08:48:17;24.00;51.80
42037;DHT22;30340;52.004;5.908;2022-07-23T08:50:45;24.10;51.80
42037;DHT22;30340;52.004;5.908;2022-07-23T08:53:11;24.30;51.80
42037;DHT22;30340;52.004;5.908;2022-07-23T08:55:37;24.30;51.70
42037;DHT22;30340;52.004;5.908;2022-07-23T08:58:02;24.40;51.80
42037;DHT22;30340;52.004;5.908;2022-07-23T09:00:28;24.40;51.60
42037;DHT22;30340;52.004;5.908;2022-07-23T09:02:54;24.50;51.30
42037;DHT22;30340;52.004;5.908;2022-07-23T09:05:20;24.60;50.90
42037;DHT22;30340;52.004;5.908;2022-07-23T09:08:22;24.60;50.80
42037;DHT22;30340;52.004;5.908;2022-07-23T09:13:34;24.40;50.80
42037;DHT22;30340;52.004;5.908;2022-07-23T09:16:06;24.50;50.80
42037;DHT22;30340;52.004;5.908;2022-07-23T09:18:47;24.50;50.50
42037;DHT22;30340;52.004;5.908;2022-07-23T09:21:36;24.50;50.70
42037;DHT22;30340;52.004;5.908;2022-07-23T09:24:04;24.70;50.70
42037;DHT22;30340;52.004;5.908;2022-07-23T09:26:46;24.70;50.00
42037;DHT22;30340;52.004;5.908;2022-07-23T09:29:23;24.70;49.70
42037;DHT22;30340;52.004;5.908;2022-07-23T09:31:54;24.90;49.70
42037;DHT22;30340;52.004;5.908;2022-07-23T09:34:23;25.00;49.20
42037;DHT22;30340;52.004;5.908;2022-07-23T09:36:54;25.10;49.50
42037;DHT22;30340;52.004;5.908;2022-07-23T09:39:31;25.20;49.30
42037;DHT22;30340;52.004;5.908;2022-07-23T09:41:57;25.20;48.60
42037;DHT22;30340;52.004;5.908;2022-07-23T09:44:23;25.30;48.80
42037;DHT22;30340;52.004;5.908;2022-07-23T09:46:50;25.30;48.20
42037;DHT22;30340;52.004;5.908;2022-07-23T09:49:18;25.30;48.10
42037;DHT22;30340;52.004;5.908;2022-07-23T09:51:50;25.40;47.70
42037;DHT22;30340;52.004;5.908;2022-07-23T09:56:54;25.40;48.00
42037;DHT22;30340;52.004;5.908;2022-07-23T09:59:26;25.40;47.80
42037;DHT22;30340;52.004;5.908;2022-07-23T10:01:54;25.50;47.90
42037;DHT22;30340;52.004;5.908;2022-07-23T10:04:22;25.60;47.90
42037;DHT22;30340;52.004;5.908;2022-07-23T10:06:54;25.70;47.30
42037;DHT22;30340;52.004;5.908;2022-07-23T10:09:35;25.60;47.00
42037;DHT22;30340;52.004;5.908;2022-07-23T10:12:12;25.70;46.90
42037;DHT22;30340;52.004;5.908;2022-07-23T10:14:46;25.80;46.70
42037;DHT22;30340;52.004;5.908;2022-07-23T10:17:12;25.70;46.10
42037;DHT22;30340;52.004;5.908;2022-07-23T10:19:38;25.70;46.00
42037;DHT22;30340;52.004;5.908;2022-07-23T10:22:07;25.70;46.30
42037;DHT22;30340;52.004;5.908;2022-07-23T10:24:53;25.70;46.50
42037;DHT22;30340;52.004;5.908;2022-07-23T10:27:40;25.70;46.60
42037;DHT22;30340;52.004;5.908;2022-07-23T10:30:12;25.80;46.40
42037;DHT22;30340;52.004;5.908;2022-07-23T10:38:30;26.00;45.50
42037;DHT22;30340;52.004;5.908;2022-07-23T10:41:01;26.10;45.20
42037;DHT22;30340;52.004;5.908;2022-07-23T10:43:28;26.10;44.70
42037;DHT22;30340;52.004;5.908;2022-07-23T10:45:54;26.00;44.10
42037;DHT22;30340;52.004;5.908;2022-07-23T10:48:25;26.00;44.30
42037;DHT22;30340;52.004;5.908;2022-07-23T10:51:13;25.90;44.20
42037;DHT22;30340;52.004;5.908;2022-07-23T10:59:21;26.20;44.60
42037;DHT22;30340;52.004;5.908;2022-07-23T11:01:47;26.20;44.30
42037;DHT22;30340;52.004;5.908;2022-07-23T11:04:13;26.30;44.40
42037;DHT22;30340;52.004;5.908;2022-07-23T11:09:43;26.60;44.00
42037;DHT22;30340;52.004;5.908;2022-07-23T11:17:22;26.60;43.20
42037;DHT22;30340;52.004;5.908;2022-07-23T11:25:33;26.50;43.20
42037;DHT22;30340;52.004;5.908;2022-07-23T11:28:10;26.70;43.10
42037;DHT22;30340;52.004;5.908;2022-07-23T11:30:39;26.80;42.90
42037;DHT22;30340;52.004;5.908;2022-07-23T11:35:35;26.80;42.20
42037;DHT22;30340;52.004;5.908;2022-07-23T11:38:15;26.80;42.40
42037;DHT22;30340;52.004;5.908;2022-07-23T11:40:46;26.90;42.40
42037;DHT22;30340;52.004;5.908;2022-07-23T11:43:13;27.00;42.50
42037;DHT22;30340;52.004;5.908;2022-07-23T11:45:46;27.10;42.30
42037;DHT22;30340;52.004;5.908;2022-07-23T11:48:18;27.40;42.40
42037;DHT22;30340;52.004;5.908;2022-07-23T11:50:44;27.50;42.00
42037;DHT22;30340;52.004;5.908;2022-07-23T11:53:09;27.50;41.70
42037;DHT22;30340;52.004;5.908;2022-07-23T11:55:35;27.60;41.40
42037;DHT22;30340;52.004;5.908;2022-07-23T11:58:01;27.80;41.10
42037;DHT22;30340;52.004;5.908;2022-07-23T12:00:29;27.80;40.50
42037;DHT22;30340;52.004;5.908;2022-07-23T12:03:02;27.80;40.70
42037;DHT22;30340;52.004;5.908;2022-07-23T12:05:31;28.10;40.70
42037;DHT22;30340;52.004;5.908;2022-07-23T12:07:58;28.30;40.80
42037;DHT22;30340;52.004;5.908;2022-07-23T12:10:29;28.40;40.90
42037;DHT22;30340;52.004;5.908;2022-07-23T12:12:57;28.50;40.90
42037;DHT22;30340;52.004;5.908;2022-07-23T12:15:29;28.70;40.70
42037;DHT22;30340;52.004;5.908;2022-07-23T12:17:57;29.00;40.90
42037;DHT22;30340;52.004;5.908;2022-07-23T12:20:26;29.00;40.30
42037;DHT22;30340;52.004;5.908;2022-07-23T12:23:00;29.00;40.20
42037;DHT22;30340;52.004;5.908;2022-07-23T12:25:31;29.10;40.80
42037;DHT22;30340;52.004;5.908;2022-07-23T12:30:36;29.30;39.90
42037;DHT22;30340;52.004;5.908;2022-07-23T12:33:03;29.30;39.60
42037;DHT22;30340;52.004;5.908;2022-07-23T12:35:41;29.30;39.50
42037;DHT22;30340;52.004;5.908;2022-07-23T12:38:12;29.40;39.60
42037;DHT22;30340;52.004;5.908;2022-07-23T12:40:50;29.20;38.90
42037;DHT22;30340;52.004;5.908;2022-07-23T12:43:23;29.20;39.30
42037;DHT22;30340;52.004;5.908;2022-07-23T12:45:51;29.30;39.20
42037;DHT22;30340;52.004;5.908;2022-07-23T12:48:26;29.30;39.30
42037;DHT22;30340;52.004;5.908;2022-07-23T12:50:56;29.20;39.20
42037;DHT22;30340;52.004;5.908;2022-07-23T12:53:29;29.20;39.10
42037;DHT22;30340;52.004;5.908;2022-07-23T12:56:08;29.30;39.20
42037;DHT22;30340;52.004;5.908;2022-07-23T12:58:56;29.50;39.40
42037;DHT22;30340;52.004;5.908;2022-07-23T13:03:58;29.90;39.00
42037;DHT22;30340;52.004;5.908;2022-07-23T13:06:25;30.00;39.00
42037;DHT22;30340;52.004;5.908;2022-07-23T13:08:51;29.90;38.40
42037;DHT22;30340;52.004;5.908;2022-07-23T13:11:16;30.00;38.60
42037;DHT22;30340;52.004;5.908;2022-07-23T13:13:42;30.00;38.10
42037;DHT22;30340;52.004;5.908;2022-07-23T13:16:07;30.10;38.40
42037;DHT22;30340;52.004;5.908;2022-07-23T13:18:33;30.10;38.10
42037;DHT22;30340;52.004;5.908;2022-07-23T13:20:59;30.30;37.80
42037;DHT22;30340;52.004;5.908;2022-07-23T13:23:26;30.50;37.80
42037;DHT22;30340;52.004;5.908;2022-07-23T13:25:52;30.70;37.50
42037;DHT22;30340;52.004;5.908;2022-07-23T13:28:19;30.80;37.50
42037;DHT22;30340;52.004;5.908;2022-07-23T13:30:46;30.70;37.60
42037;DHT22;30340;52.004;5.908;2022-07-23T13:33:12;30.60;37.70
42037;DHT22;30340;52.004;5.908;2022-07-23T13:35:38;30.30;37.70
42037;DHT22;30340;52.004;5.908;2022-07-23T13:38:05;30.10;37.90
42037;DHT22;30340;52.004;5.908;2022-07-23T13:40:34;29.80;38.20
42037;DHT22;30340;52.004;5.908;2022-07-23T13:42:59;29.40;38.60
42037;DHT22;30340;52.004;5.908;2022-07-23T13:45:26;29.20;39.10
42037;DHT22;30340;52.004;5.908;2022-07-23T13:47:52;29.10;39.30
42037;DHT22;30340;52.004;5.908;2022-07-23T13:50:17;29.10;39.50
42037;DHT22;30340;52.004;5.908;2022-07-23T13:52:43;29.10;39.60
42037;DHT22;30340;52.004;5.908;2022-07-23T13:55:09;29.00;39.50
42037;DHT22;30340;52.004;5.908;2022-07-23T13:57:34;28.80;39.40
42037;DHT22;30340;52.004;5.908;2022-07-23T14:00:00;28.60;39.10
42037;DHT22;30340;52.004;5.908;2022-07-23T14:02:26;28.70;39.50
42037;DHT22;30340;52.004;5.908;2022-07-23T14:04:52;28.80;39.30
42037;DHT22;30340;52.004;5.908;2022-07-23T14:07:18;28.90;39.30
42037;DHT22;30340;52.004;5.908;2022-07-23T14:09:44;29.10;39.10
42037;DHT22;30340;52.004;5.908;2022-07-23T14:12:10;29.20;39.10
42037;DHT22;30340;52.004;5.908;2022-07-23T14:14:35;29.50;38.80
42037;DHT22;30340;52.004;5.908;2022-07-23T14:17:01;29.80;38.60
42037;DHT22;30340;52.004;5.908;2022-07-23T14:19:27;30.10;38.30
42037;DHT22;30340;52.004;5.908;2022-07-23T14:21:53;30.20;38.10
42037;DHT22;30340;52.004;5.908;2022-07-23T14:24:18;30.20;37.80
42037;DHT22;30340;52.004;5.908;2022-07-23T14:26:44;30.20;37.50
42037;DHT22;30340;52.004;5.908;2022-07-23T14:29:09;30.30;37.60
42037;DHT22;30340;52.004;5.908;2022-07-23T14:31:35;30.40;37.50
42037;DHT22;30340;52.004;5.908;2022-07-23T14:34:01;30.50;37.30
42037;DHT22;30340;52.004;5.908;2022-07-23T14:36:26;30.70;37.10
42037;DHT22;30340;52.004;5.908;2022-07-23T14:38:52;30.90;36.90
42037;DHT22;30340;52.004;5.908;2022-07-23T14:41:18;31.10;36.70
42037;DHT22;30340;52.004;5.908;2022-07-23T14:43:44;31.20;36.80
42037;DHT22;30340;52.004;5.908;2022-07-23T14:46:10;31.20;36.40
42037;DHT22;30340;52.004;5.908;2022-07-23T14:48:37;31.10;36.70
42037;DHT22;30340;52.004;5.908;2022-07-23T14:51:03;31.10;36.40
42037;DHT22;30340;52.004;5.908;2022-07-23T14:53:29;31.00;36.30
42037;DHT22;30340;52.004;5.908;2022-07-23T14:55:54;30.90;36.50
42037;DHT22;30340;52.004;5.908;2022-07-23T14:58:22;30.70;36.60
42037;DHT22;30340;52.004;5.908;2022-07-23T15:00:48;30.50;36.50
42037;DHT22;30340;52.004;5.908;2022-07-23T15:03:13;30.30;36.90
42037;DHT22;30340;52.004;5.908;2022-07-23T15:05:39;30.30;36.70
42037;DHT22;30340;52.004;5.908;2022-07-23T15:08:04;30.20;36.60
42037;DHT22;30340;52.004;5.908;2022-07-23T15:10:30;30.00;36.90
42037;DHT22;30340;52.004;5.908;2022-07-23T15:12:55;29.80;37.30
42037;DHT22;30340;52.004;5.908;2022-07-23T15:15:21;30.00;37.60
42037;DHT22;30340;52.004;5.908;2022-07-23T15:17:47;30.10;37.70
42037;DHT22;30340;52.004;5.908;2022-07-23T15:20:12;30.30;37.80
42037;DHT22;30340;52.004;5.908;2022-07-23T15:22:38;30.40;37.70
42037;DHT22;30340;52.004;5.908;2022-07-23T15:25:04;30.60;37.60
42037;DHT22;30340;52.004;5.908;2022-07-23T15:27:30;30.80;37.50
42037;DHT22;30340;52.004;5.908;2022-07-23T15:29:56;30.70;37.10
42037;DHT22;30340;52.004;5.908;2022-07-23T15:32:21;30.80;37.30
42037;DHT22;30340;52.004;5.908;2022-07-23T15:34:50;30.70;37.00
42037;DHT22;30340;52.004;5.908;2022-07-23T15:37:15;30.60;37.00
42037;DHT22;30340;52.004;5.908;2022-07-23T15:39:41;30.50;37.20
42037;DHT22;30340;52.004;5.908;2022-07-23T15:42:07;30.40;37.30
42037;DHT22;30340;52.004;5.908;2022-07-23T15:44:32;30.20;37.60
42037;DHT22;30340;52.004;5.908;2022-07-23T15:46:58;30.00;37.70
42037;DHT22;30340;52.004;5.908;2022-07-23T15:49:23;29.80;38.20
42037;DHT22;30340;52.004;5.908;2022-07-23T15:51:49;29.80;38.40
42037;DHT22;30340;52.004;5.908;2022-07-23T15:54:14;29.90;38.30
42037;DHT22;30340;52.004;5.908;2022-07-23T15:56:40;29.80;38.20
42037;DHT22;30340;52.004;5.908;2022-07-23T15:59:08;29.80;38.20
42037;DHT22;30340;52.004;5.908;2022-07-23T16:01:33;29.90;38.20
42037;DHT22;30340;52.004;5.908;2022-07-23T16:03:59;29.90;38.30
42037;DHT22;30340;52.004;5.908;2022-07-23T16:06:25;30.00;38.30
42037;DHT22;30340;52.004;5.908;2022-07-23T16:08:51;30.00;38.30